createdAt,value
2018-07-04T00:00:18.394Z,15.88
2018-07-04T00:01:44.868Z,15.85
2018-07-04T00:03:12.438Z,15.87
2018-07-04T00:04:40.768Z,15.87
2018-07-04T00:06:08.421Z,15.88
2018-07-04T00:07:34.366Z,15.81
2018-07-04T00:09:01.673Z,15.77
2018-07-04T00:10:29.248Z,15.78
2018-07-04T00:11:56.484Z,15.80
2018-07-04T00:13:23.968Z,15.78
2018-07-04T00:14:51.328Z,15.80
2018-07-04T00:16:19.816Z,15.81
2018-07-04T00:17:45.979Z,15.79
2018-07-04T00:19:13.185Z,15.76
2018-07-04T00:20:40.625Z,15.76
2018-07-04T00:22:08.838Z,15.74
2018-07-04T00:23:36.280Z,15.68
2018-07-04T00:25:03.458Z,15.65
2018-07-04T00:26:30.994Z,15.47
2018-07-04T00:27:58.119Z,15.30
2018-07-04T00:29:24.336Z,15.15
2018-07-04T00:30:52.723Z,15.07
2018-07-04T00:32:19.242Z,15.02
2018-07-04T00:33:46.640Z,15.00
2018-07-04T00:35:14.879Z,14.92
2018-07-04T00:36:41.229Z,14.81
2018-07-04T00:38:08.539Z,14.71
2018-07-04T00:39:35.862Z,14.60
2018-07-04T00:41:03.272Z,14.50
2018-07-04T00:42:30.639Z,14.41
2018-07-04T00:43:57.841Z,14.31
2018-07-04T00:45:25.034Z,14.24
2018-07-04T00:46:53.667Z,14.27
2018-07-04T00:48:20.080Z,14.35
2018-07-04T00:49:47.410Z,14.44
2018-07-04T00:51:15.787Z,14.52
2018-07-04T00:52:41.885Z,14.61
2018-07-04T00:54:10.342Z,14.69
2018-07-04T00:55:37.559Z,14.75
2018-07-04T00:57:04.058Z,14.79
2018-07-04T00:58:31.446Z,14.82
2018-07-04T01:00:00.088Z,14.80
2018-07-04T01:01:27.207Z,14.72
2018-07-04T01:02:53.707Z,14.62
2018-07-04T01:04:22.282Z,14.55
2018-07-04T01:05:49.639Z,14.48
2018-07-04T01:07:18.938Z,14.44
2018-07-04T01:08:44.447Z,14.46
2018-07-04T01:10:10.671Z,14.52
2018-07-04T01:11:38.000Z,14.57
2018-07-04T01:13:05.531Z,14.66
2018-07-04T01:14:32.881Z,14.71
2018-07-04T01:15:59.979Z,14.75
2018-07-04T01:17:27.234Z,14.78
2018-07-04T01:18:55.821Z,14.82
2018-07-04T01:20:23.010Z,14.86
2018-07-04T01:21:49.482Z,14.89
2018-07-04T01:23:16.855Z,14.85
2018-07-04T01:24:45.342Z,14.81
2018-07-04T01:26:12.504Z,14.72
2018-07-04T01:27:39.659Z,14.64
2018-07-04T01:29:06.281Z,14.57
2018-07-04T01:30:33.509Z,14.49
2018-07-04T01:32:01.854Z,14.41
2018-07-04T01:33:28.291Z,14.33
2018-07-04T01:34:55.809Z,14.30
2018-07-04T01:36:22.977Z,14.28
2018-07-04T01:37:50.137Z,14.29
2018-07-04T01:39:18.628Z,14.24
2018-07-04T01:40:44.939Z,14.19
2018-07-04T01:42:12.316Z,14.19
2018-07-04T01:43:39.697Z,14.24
2018-07-04T01:45:07.035Z,14.28
2018-07-04T01:46:34.400Z,14.34
2018-07-04T01:48:01.930Z,14.36
2018-07-04T01:49:29.226Z,14.38
2018-07-04T01:50:57.759Z,14.37
2018-07-04T01:52:23.989Z,14.37
2018-07-04T01:53:51.432Z,14.36
2018-07-04T01:55:18.771Z,14.33
2018-07-04T01:56:47.004Z,14.30
2018-07-04T01:58:13.079Z,14.32
2018-07-04T01:59:40.448Z,14.35
2018-07-04T02:01:07.583Z,14.38
2018-07-04T02:02:35.811Z,14.41
2018-07-04T02:04:02.092Z,14.43
2018-07-04T02:05:29.481Z,14.44
2018-07-04T02:06:57.018Z,14.47
2018-07-04T02:08:25.530Z,14.48
2018-07-04T02:09:51.998Z,14.46
2018-07-04T02:11:20.253Z,14.43
2018-07-04T02:12:46.476Z,14.40
2018-07-04T02:14:13.585Z,14.35
2018-07-04T02:15:40.908Z,14.29
2018-07-04T02:17:09.438Z,14.25
2018-07-04T02:18:36.780Z,14.17
2018-07-04T02:20:03.185Z,14.10
2018-07-04T02:21:31.499Z,14.02
2018-07-04T02:22:58.820Z,14.00
2018-07-04T02:24:25.258Z,14.01
2018-07-04T02:25:53.834Z,14.02
2018-07-04T02:27:21.062Z,14.05
2018-07-04T02:28:48.182Z,14.09
2018-07-04T02:30:14.590Z,14.12
2018-07-04T02:31:41.939Z,14.15
2018-07-04T02:33:09.188Z,14.10
2018-07-04T02:34:37.347Z,13.99
2018-07-04T02:36:04.792Z,13.86
2018-07-04T02:37:32.291Z,13.79
2018-07-04T02:38:58.611Z,13.73
2018-07-04T02:40:25.864Z,13.67
2018-07-04T02:41:54.011Z,13.61
2018-07-04T02:43:20.570Z,13.54
2018-07-04T02:44:47.711Z,13.62
2018-07-04T02:46:14.955Z,13.71
2018-07-04T02:47:43.467Z,13.80
2018-07-04T02:49:10.687Z,13.88
2018-07-04T02:50:36.857Z,13.95
2018-07-04T02:52:04.111Z,13.98
2018-07-04T02:53:32.371Z,13.99
2018-07-04T02:54:58.490Z,13.97
2018-07-04T02:56:25.984Z,13.98
2018-07-04T02:57:53.260Z,13.96
2018-07-04T02:59:14.614Z,13.96
2018-07-04T03:00:49.080Z,13.96
2018-07-04T03:02:16.353Z,13.98
2018-07-04T03:03:43.810Z,14.00
2018-07-04T03:05:09.909Z,14.07
2018-07-04T03:06:38.377Z,14.12
2018-07-04T03:08:05.595Z,14.17
2018-07-04T03:09:32.055Z,14.21
2018-07-04T03:11:00.664Z,14.23
2018-07-04T03:12:27.051Z,14.24
2018-07-04T03:13:55.322Z,14.25
2018-07-04T03:15:22.880Z,14.22
2018-07-04T03:16:49.040Z,14.18
2018-07-04T03:18:16.381Z,14.13
2018-07-04T03:19:43.718Z,14.07
2018-07-04T03:21:11.124Z,14.05
2018-07-04T03:22:38.588Z,14.04
2018-07-04T03:24:06.747Z,14.05
2018-07-04T03:25:34.235Z,14.08
2018-07-04T03:27:01.643Z,14.11
2018-07-04T03:28:28.053Z,14.16
2018-07-04T03:29:55.676Z,14.22
2018-07-04T03:31:22.944Z,14.28
2018-07-04T03:32:50.399Z,14.33
2018-07-04T03:34:17.902Z,14.37
2018-07-04T03:35:45.386Z,14.42
2018-07-04T03:37:13.724Z,14.48
2018-07-04T03:38:40.095Z,14.53
2018-07-04T03:40:08.196Z,14.58
2018-07-04T03:41:34.663Z,14.63
2018-07-04T03:43:03.256Z,14.68
2018-07-04T03:44:29.621Z,14.73
2018-07-04T03:45:57.982Z,14.78
2018-07-04T03:47:30.404Z,14.82
2018-07-04T03:48:51.525Z,14.86
2018-07-04T03:50:18.949Z,14.87
2018-07-04T03:51:47.390Z,14.92
2018-07-04T03:53:13.779Z,14.97
2018-07-04T03:54:42.134Z,15.01
2018-07-04T03:56:08.663Z,15.15
2018-07-04T03:57:35.989Z,15.56
2018-07-04T03:59:04.447Z,16.11
2018-07-04T04:00:30.843Z,16.62
2018-07-04T04:01:58.281Z,17.04
2018-07-04T04:03:26.853Z,17.38
2018-07-04T04:04:54.284Z,17.61
2018-07-04T04:06:20.691Z,17.72
2018-07-04T04:07:48.032Z,17.69
2018-07-04T04:09:15.444Z,17.64
2018-07-04T04:10:43.017Z,17.52
2018-07-04T04:12:11.635Z,17.32
2018-07-04T04:13:39.032Z,17.02
2018-07-04T04:15:05.213Z,16.75
2018-07-04T04:16:32.595Z,16.45
2018-07-04T04:17:59.884Z,16.19
2018-07-04T04:19:28.458Z,15.99
2018-07-04T04:20:54.788Z,15.84
2018-07-04T04:22:23.364Z,15.75
2018-07-04T04:23:50.875Z,15.73
2018-07-04T04:25:18.313Z,15.70
2018-07-04T04:26:45.555Z,15.72
2018-07-04T04:28:13.131Z,15.75
2018-07-04T04:29:39.537Z,15.74
2018-07-04T04:31:08.078Z,15.71
2018-07-04T04:32:35.557Z,15.68
2018-07-04T04:34:02.503Z,15.68
2018-07-04T04:35:30.249Z,15.70
2018-07-04T04:36:58.592Z,15.74
2018-07-04T04:38:25.909Z,15.76
2018-07-04T04:39:53.132Z,15.80
2018-07-04T04:41:20.584Z,15.82
2018-07-04T04:42:48.027Z,15.86
2018-07-04T04:44:14.338Z,15.89
2018-07-04T04:45:42.736Z,15.90
2018-07-04T04:47:08.968Z,15.92
2018-07-04T04:48:36.318Z,15.96
2018-07-04T04:50:03.887Z,16.05
2018-07-04T04:51:32.230Z,16.13
2018-07-04T04:52:58.595Z,16.23
2018-07-04T04:54:27.055Z,16.27
2018-07-04T04:55:54.293Z,16.35
2018-07-04T04:57:20.758Z,16.42
2018-07-04T04:58:49.044Z,16.47
2018-07-04T05:00:15.499Z,16.55
2018-07-04T05:01:43.866Z,16.64
2018-07-04T05:03:10.508Z,16.72
2018-07-04T05:04:38.906Z,16.81
2018-07-04T05:06:05.273Z,16.89
2018-07-04T05:07:33.762Z,16.98
2018-07-04T05:09:00.256Z,17.05
2018-07-04T05:10:28.460Z,17.12
2018-07-04T05:11:55.779Z,17.18
2018-07-04T05:13:22.940Z,17.24
2018-07-04T05:14:49.559Z,17.31
2018-07-04T05:16:16.921Z,17.39
2018-07-04T05:17:44.191Z,17.44
2018-07-04T05:19:11.702Z,17.40
2018-07-04T05:20:39.158Z,17.44
2018-07-04T05:22:06.418Z,17.46
2018-07-04T05:23:34.621Z,17.51
2018-07-04T05:25:00.953Z,17.58
2018-07-04T05:26:28.381Z,17.60
2018-07-04T05:27:56.815Z,17.64
2018-07-04T05:29:24.209Z,17.68
2018-07-04T05:30:51.659Z,17.77
2018-07-04T05:32:18.718Z,17.88
2018-07-04T05:33:45.861Z,17.98
2018-07-04T05:35:12.378Z,18.08
2018-07-04T05:36:39.736Z,18.16
2018-07-04T05:38:08.238Z,18.29
2018-07-04T05:39:34.412Z,18.46
2018-07-04T05:41:01.568Z,18.68
2018-07-04T05:42:28.750Z,19.00
2018-07-04T05:43:56.313Z,19.46
2018-07-04T05:45:23.800Z,20.06
2018-07-04T05:46:51.118Z,20.64
2018-07-04T05:48:18.895Z,21.26
2018-07-04T05:49:47.105Z,21.84
2018-07-04T05:51:13.609Z,22.20
2018-07-04T05:52:41.269Z,22.37
2018-07-04T05:54:09.582Z,22.67
2018-07-04T05:55:36.309Z,22.91
2018-07-04T05:57:03.685Z,23.24
2018-07-04T05:58:30.924Z,23.57
2018-07-04T05:59:58.502Z,23.86
2018-07-04T06:01:26.166Z,23.94
2018-07-04T06:02:53.447Z,23.83
2018-07-04T06:04:22.050Z,23.74
2018-07-04T06:05:48.743Z,23.59
2018-07-04T06:07:15.951Z,23.65
2018-07-04T06:08:44.482Z,23.70
2018-07-04T06:10:11.919Z,23.67
2018-07-04T06:11:39.364Z,23.70
2018-07-04T06:13:06.753Z,23.70
2018-07-04T06:14:34.429Z,23.59
2018-07-04T06:16:00.835Z,23.39
2018-07-04T06:17:29.511Z,23.09
2018-07-04T06:18:55.806Z,22.98
2018-07-04T06:20:23.159Z,22.95
2018-07-04T06:21:50.586Z,22.81
2018-07-04T06:23:18.067Z,22.83
2018-07-04T06:24:45.098Z,22.78
2018-07-04T06:26:13.486Z,22.81
2018-07-04T06:27:41.221Z,22.84
2018-07-04T06:29:07.339Z,22.93
2018-07-04T06:30:34.858Z,23.02
2018-07-04T06:32:02.454Z,23.04
2018-07-04T06:33:30.015Z,22.89
2018-07-04T06:34:58.617Z,22.98
2018-07-04T06:36:25.343Z,23.06
2018-07-04T06:37:53.960Z,23.16
2018-07-04T06:39:21.661Z,23.25
2018-07-04T06:40:49.168Z,23.38
2018-07-04T06:42:15.999Z,23.47
2018-07-04T06:43:44.651Z,23.55
2018-07-04T06:45:11.137Z,23.80
2018-07-04T06:46:39.999Z,24.18
2018-07-04T06:48:07.140Z,24.50
2018-07-04T06:49:33.563Z,24.85
2018-07-04T06:51:01.237Z,25.18
2018-07-04T06:52:28.713Z,25.50
2018-07-04T06:53:57.449Z,26.00
2018-07-04T06:55:24.568Z,26.55
2018-07-04T06:56:50.977Z,27.00
2018-07-04T06:58:18.372Z,27.31
2018-07-04T06:59:45.818Z,27.42
2018-07-04T07:01:13.687Z,27.22
2018-07-04T07:02:41.054Z,26.79
2018-07-04T07:04:08.134Z,26.44
2018-07-04T07:05:36.861Z,26.18
2018-07-04T07:07:03.228Z,25.93
2018-07-04T07:08:30.611Z,25.55
2018-07-04T07:09:58.134Z,25.19
2018-07-04T07:11:25.672Z,25.04
2018-07-04T07:12:54.099Z,24.84
2018-07-04T07:14:20.520Z,24.70
2018-07-04T07:15:48.256Z,24.70
2018-07-04T07:17:15.730Z,24.74
2018-07-04T07:18:42.759Z,24.79
2018-07-04T07:20:11.298Z,24.89
2018-07-04T07:21:38.938Z,24.90
2018-07-04T07:23:05.145Z,25.05
2018-07-04T07:24:32.571Z,25.15
2018-07-04T07:26:01.244Z,25.31
2018-07-04T07:27:27.576Z,25.52
2018-07-04T07:28:55.172Z,25.59
2018-07-04T07:30:22.781Z,25.56
2018-07-04T07:31:50.042Z,25.46
2018-07-04T07:33:18.523Z,25.39
2018-07-04T07:34:45.795Z,25.30
2018-07-04T07:36:13.427Z,25.19
2018-07-04T07:37:39.988Z,25.12
2018-07-04T07:39:07.521Z,25.06
2018-07-04T07:40:35.025Z,25.05
2018-07-04T07:42:02.206Z,25.01
2018-07-04T07:43:29.598Z,24.77
2018-07-04T07:44:57.007Z,24.57
2018-07-04T07:46:25.425Z,24.42
2018-07-04T07:47:51.876Z,24.33
2018-07-04T07:49:19.512Z,24.26
2018-07-04T07:50:46.401Z,24.23
2018-07-04T07:52:14.073Z,24.19
2018-07-04T07:53:41.703Z,24.14
2018-07-04T07:55:09.069Z,24.08
2018-07-04T07:56:36.555Z,23.95
2018-07-04T07:58:04.715Z,23.92
2018-07-04T07:59:31.273Z,23.87
2018-07-04T08:00:58.921Z,23.88
2018-07-04T08:02:26.171Z,23.90
2018-07-04T08:03:54.721Z,23.84
2018-07-04T08:05:21.010Z,23.75
2018-07-04T08:06:48.614Z,23.75
2018-07-04T08:08:15.972Z,23.75
2018-07-04T08:09:43.312Z,23.79
2018-07-04T08:11:11.690Z,23.82
2018-07-04T08:12:37.790Z,23.84
2018-07-04T08:14:05.452Z,23.88
2018-07-04T08:15:33.981Z,23.92
2018-07-04T08:17:01.517Z,23.96
2018-07-04T08:18:28.084Z,23.98
2018-07-04T08:19:55.994Z,24.02
2018-07-04T08:21:22.607Z,23.99
2018-07-04T08:22:50.052Z,23.96
2018-07-04T08:24:18.550Z,23.96
2018-07-04T08:25:46.188Z,23.96
2018-07-04T08:27:12.674Z,23.95
2018-07-04T08:28:41.485Z,23.95
2018-07-04T08:30:08.233Z,23.92
2018-07-04T08:31:34.982Z,23.91
2018-07-04T08:33:03.602Z,23.92
2018-07-04T08:34:31.256Z,23.93
2018-07-04T08:35:57.953Z,24.00
2018-07-04T08:37:26.671Z,24.06
2018-07-04T08:38:54.132Z,24.10
2018-07-04T08:40:20.783Z,24.11
2018-07-04T08:41:49.441Z,24.08
2018-07-04T08:43:15.898Z,24.11
2018-07-04T08:44:44.604Z,24.14
2018-07-04T08:46:11.899Z,24.16
2018-07-04T08:47:38.269Z,24.17
2018-07-04T08:49:06.078Z,24.21
2018-07-04T08:50:34.679Z,24.22
2018-07-04T08:52:01.305Z,24.27
2018-07-04T08:53:28.641Z,24.33
2018-07-04T08:54:56.485Z,24.36
2018-07-04T08:56:24.893Z,24.40
2018-07-04T08:57:51.414Z,24.43
2018-07-04T08:59:20.074Z,24.48
2018-07-04T09:00:47.581Z,24.50
2018-07-04T09:02:13.838Z,24.57
2018-07-04T09:03:41.243Z,24.65
2018-07-04T09:05:08.573Z,24.64
2018-07-04T09:06:36.164Z,24.62
2018-07-04T09:08:03.582Z,24.68
2018-07-04T09:09:31.260Z,24.72
2018-07-04T09:10:58.960Z,24.76
2018-07-04T09:12:27.544Z,24.82
2018-07-04T09:13:53.746Z,24.87
2018-07-04T09:15:22.294Z,24.94
2018-07-04T09:16:48.789Z,25.00
2018-07-04T09:18:16.250Z,25.04
2018-07-04T09:19:43.640Z,25.11
2018-07-04T09:21:11.102Z,25.15
2018-07-04T09:22:38.585Z,25.20
2018-07-04T09:24:07.075Z,25.25
2018-07-04T09:25:34.314Z,25.26
2018-07-04T09:27:00.667Z,25.27
2018-07-04T09:28:27.635Z,25.28
2018-07-04T09:29:55.118Z,25.21
2018-07-04T09:31:22.517Z,25.22
2018-07-04T09:32:50.129Z,25.26
2018-07-04T09:34:17.697Z,25.32
2018-07-04T09:35:45.910Z,25.38
2018-07-04T09:37:12.486Z,25.36
2018-07-04T09:38:40.020Z,25.36
2018-07-04T09:40:07.726Z,25.36
2018-07-04T09:41:36.392Z,25.38
2018-07-04T09:43:02.978Z,25.39
2018-07-04T09:44:31.679Z,25.39
2018-07-04T09:45:59.114Z,25.41
2018-07-04T09:47:26.774Z,25.44
2018-07-04T09:48:53.281Z,25.49
2018-07-04T09:50:20.777Z,25.54
2018-07-04T09:51:48.279Z,25.61
2018-07-04T09:53:16.741Z,25.70
2018-07-04T09:54:43.128Z,25.66
2018-07-04T09:56:11.736Z,25.66
2018-07-04T09:57:38.020Z,25.72
2018-07-04T09:59:05.745Z,25.75
2018-07-04T10:00:33.129Z,25.78
2018-07-04T10:02:01.685Z,25.83
2018-07-04T10:03:29.035Z,25.84
2018-07-04T10:04:56.334Z,25.77
2018-07-04T10:06:22.875Z,25.83
2018-07-04T10:07:51.580Z,25.86
2018-07-04T10:09:19.109Z,25.88
2018-07-04T10:10:45.638Z,25.93
2018-07-04T10:12:13.153Z,26.00
2018-07-04T10:13:40.608Z,26.05
2018-07-04T10:15:08.384Z,26.09
2018-07-04T10:16:35.443Z,26.12
2018-07-04T10:18:04.246Z,26.13
2018-07-04T10:19:30.768Z,26.09
2018-07-04T10:20:57.893Z,26.15
2018-07-04T10:22:25.463Z,26.17
2018-07-04T10:23:52.830Z,26.17
2018-07-04T10:25:20.293Z,26.16
2018-07-04T10:26:47.716Z,26.16
2018-07-04T10:28:15.198Z,26.24
2018-07-04T10:29:42.729Z,26.32
2018-07-04T10:31:10.059Z,26.39
2018-07-04T10:32:38.492Z,26.42
2018-07-04T10:34:05.096Z,26.41
2018-07-04T10:35:32.855Z,26.45
2018-07-04T10:37:00.347Z,26.49
2018-07-04T10:38:28.006Z,26.53
2018-07-04T10:39:55.363Z,26.58
2018-07-04T10:41:22.980Z,26.65
2018-07-04T10:42:50.492Z,26.72
2018-07-04T10:44:18.171Z,26.71
2018-07-04T10:45:45.788Z,26.74
2018-07-04T10:47:13.503Z,26.79
2018-07-04T10:48:41.232Z,26.84
2018-07-04T10:50:08.586Z,26.90
2018-07-04T10:51:35.874Z,26.97
2018-07-04T10:53:03.479Z,27.00
2018-07-04T10:54:31.152Z,27.07
2018-07-04T10:55:58.724Z,27.14
2018-07-04T10:57:26.203Z,27.22
2018-07-04T10:58:54.342Z,27.33
2018-07-04T11:00:20.718Z,27.35
2018-07-04T11:01:48.186Z,27.45
2018-07-04T11:03:16.801Z,27.61
2018-07-04T11:04:44.134Z,27.70
2018-07-04T11:06:10.765Z,27.72
2018-07-04T11:07:39.605Z,27.87
2018-07-04T11:09:06.179Z,28.10
2018-07-04T11:10:33.667Z,28.32
2018-07-04T11:12:02.328Z,28.45
2018-07-04T11:13:30.034Z,28.63
2018-07-04T11:14:56.723Z,28.74
2018-07-04T11:16:25.063Z,28.93
2018-07-04T11:17:51.644Z,29.19
2018-07-04T11:19:19.425Z,29.40
2018-07-04T11:20:46.594Z,29.60
2018-07-04T11:22:14.056Z,29.80
2018-07-04T11:23:41.900Z,29.87
2018-07-04T11:25:09.174Z,30.00
2018-07-04T11:26:37.740Z,30.14
2018-07-04T11:28:04.281Z,30.31
2018-07-04T11:29:32.920Z,30.42
2018-07-04T11:30:59.262Z,30.64
2018-07-04T11:32:27.951Z,30.77
2018-07-04T11:33:54.568Z,30.90
2018-07-04T11:35:22.075Z,30.90
2018-07-04T11:36:50.664Z,30.93
2018-07-04T11:38:17.333Z,30.90
2018-07-04T11:39:45.729Z,31.14
2018-07-04T11:41:12.520Z,31.21
2018-07-04T11:42:40.228Z,31.24
2018-07-04T11:44:01.329Z,31.36
2018-07-04T11:45:34.936Z,31.32
2018-07-04T11:47:02.586Z,31.49
2018-07-04T11:48:30.150Z,31.59
2018-07-04T11:49:57.841Z,31.76
2018-07-04T11:51:26.428Z,31.99
2018-07-04T11:52:53.234Z,32.13
2018-07-04T11:54:20.880Z,32.24
2018-07-04T11:55:48.564Z,32.40
2018-07-04T11:57:16.090Z,32.31
2018-07-04T11:58:44.775Z,32.36
2018-07-04T12:00:11.217Z,32.31
2018-07-04T12:01:39.032Z,32.33
2018-07-04T12:03:06.586Z,32.54
2018-07-04T12:04:35.100Z,32.56
2018-07-04T12:06:01.602Z,32.56
2018-07-04T12:07:29.053Z,32.30
2018-07-04T12:08:56.590Z,32.36
2018-07-04T12:10:25.452Z,32.47
2018-07-04T12:11:51.879Z,32.56
2018-07-04T12:13:19.346Z,32.44
2018-07-04T12:14:47.943Z,32.55
2018-07-04T12:16:14.624Z,32.49
2018-07-04T12:17:42.292Z,32.41
2018-07-04T12:19:11.007Z,32.55
2018-07-04T12:20:38.416Z,32.54
2018-07-04T12:22:05.125Z,32.62
2018-07-04T12:23:32.550Z,32.74
2018-07-04T12:25:01.114Z,32.99
2018-07-04T12:26:27.735Z,32.85
2018-07-04T12:27:55.009Z,32.87
2018-07-04T12:29:23.618Z,32.90
2018-07-04T12:30:51.460Z,32.88
2018-07-04T12:33:45.312Z,32.82
2018-07-04T12:35:13.149Z,32.70
2018-07-04T12:36:41.836Z,32.69
2018-07-04T12:38:09.586Z,32.87
2018-07-04T12:39:36.305Z,32.99
2018-07-04T12:41:04.018Z,33.05
2018-07-04T12:42:31.732Z,32.91
2018-07-04T12:43:59.321Z,32.97
2018-07-04T12:45:27.911Z,33.04
2018-07-04T12:46:54.389Z,33.11
2018-07-04T12:48:22.031Z,32.86
2018-07-04T12:49:49.652Z,32.83
2018-07-04T12:51:17.252Z,32.91
2018-07-04T12:52:45.893Z,32.91
2018-07-04T12:54:13.540Z,32.91
2018-07-04T12:55:41.007Z,32.80
2018-07-04T12:57:07.818Z,32.65
2018-07-04T12:58:35.443Z,32.52
2018-07-04T13:00:03.120Z,32.48
2018-07-04T13:01:30.486Z,32.40
2018-07-04T13:02:58.248Z,32.39
2018-07-04T13:04:25.831Z,32.22
2018-07-04T13:05:53.503Z,32.12
2018-07-04T13:07:20.766Z,31.88
2018-07-04T13:08:48.437Z,31.71
2018-07-04T13:10:16.093Z,31.69
2018-07-04T13:11:44.786Z,31.57
2018-07-04T13:13:12.369Z,31.36
2018-07-04T13:14:40.257Z,31.30
2018-07-04T13:16:07.850Z,31.25
2018-07-04T13:17:34.393Z,31.17
2018-07-04T13:19:02.110Z,31.14
2018-07-04T13:20:29.650Z,30.98
2018-07-04T13:21:57.532Z,30.82
2018-07-04T13:23:25.274Z,30.64
2018-07-04T13:24:52.613Z,30.57
2018-07-04T13:26:21.305Z,30.37
2018-07-04T13:27:47.878Z,30.37
2018-07-04T13:29:16.280Z,30.37
2018-07-04T13:30:43.795Z,30.27
2018-07-04T13:32:10.559Z,30.08
2018-07-04T13:33:39.095Z,29.80
2018-07-04T13:35:05.910Z,29.66
2018-07-04T13:36:33.658Z,29.50
2018-07-04T13:38:02.385Z,29.46
2018-07-04T13:39:29.086Z,29.40
2018-07-04T13:40:57.853Z,29.36
2018-07-04T13:42:24.375Z,29.35
2018-07-04T13:43:51.932Z,29.38
2018-07-04T13:45:20.823Z,29.37
2018-07-04T13:46:47.435Z,29.36
2018-07-04T13:48:14.950Z,29.36
2018-07-04T13:49:42.563Z,29.26
2018-07-04T13:51:10.069Z,29.26
2018-07-04T13:52:37.815Z,29.30
2018-07-04T13:54:05.435Z,29.16
2018-07-04T13:55:33.212Z,29.07
2018-07-04T13:57:01.868Z,28.81
2018-07-04T13:58:28.481Z,28.70
2018-07-04T13:59:57.096Z,28.63
2018-07-04T14:01:24.789Z,28.54
2018-07-04T14:02:51.446Z,28.57
2018-07-04T14:04:18.931Z,28.59
2018-07-04T14:05:46.349Z,28.58
2018-07-04T14:07:13.972Z,28.53
2018-07-04T14:08:41.582Z,28.47
2018-07-04T14:10:09.317Z,28.41
2018-07-04T14:11:37.994Z,28.35
2018-07-04T14:13:04.626Z,28.25
2018-07-04T14:14:32.395Z,28.14
2018-07-04T14:16:00.021Z,28.08
2018-07-04T14:17:28.444Z,27.80
2018-07-04T14:18:56.084Z,27.68
2018-07-04T14:20:23.654Z,27.63
2018-07-04T14:21:50.173Z,27.49
2018-07-04T14:23:17.779Z,27.47
2018-07-04T14:24:45.288Z,27.40
2018-07-04T14:26:12.883Z,27.31
2018-07-04T14:27:41.663Z,27.30
2018-07-04T14:29:09.241Z,27.33
2018-07-04T14:30:35.655Z,27.25
2018-07-04T14:32:04.391Z,27.17
2018-07-04T14:33:31.079Z,27.15
2018-07-04T14:34:58.625Z,27.09
2018-07-04T14:36:26.248Z,27.05
2018-07-04T14:37:53.994Z,27.04
2018-07-04T14:39:22.638Z,27.07
2018-07-04T14:40:50.333Z,27.12
2018-07-04T14:42:16.885Z,27.14
2018-07-04T14:43:44.555Z,27.15
2018-07-04T14:45:13.148Z,27.09
2018-07-04T14:46:39.897Z,27.02
2018-07-04T14:48:08.573Z,26.96
2018-07-04T14:49:35.294Z,26.90
2018-07-04T14:51:02.856Z,26.85
2018-07-04T14:52:30.793Z,26.79
2018-07-04T14:53:57.949Z,26.75
2018-07-04T14:55:25.555Z,26.71
2018-07-04T14:56:53.177Z,26.59
2018-07-04T14:58:20.448Z,26.48
2018-07-04T14:59:48.128Z,26.40
2018-07-04T15:01:15.487Z,26.38
2018-07-04T15:41:29.023Z,25.99
2018-07-04T15:42:53.185Z,25.99
2018-07-04T15:44:21.940Z,25.92
2018-07-04T15:45:48.402Z,25.83
2018-07-04T15:47:17.102Z,25.77
2018-07-04T15:48:44.645Z,25.66
2018-07-04T15:50:12.152Z,25.53
2018-07-04T15:51:39.832Z,25.42
2018-07-04T15:53:06.409Z,25.34
2018-07-04T15:54:34.780Z,25.34
2018-07-04T15:56:01.247Z,25.33
2018-07-04T15:57:28.697Z,25.28
2018-07-04T15:58:56.408Z,25.21
2018-07-04T16:00:24.931Z,25.21
2018-07-04T16:01:52.293Z,25.26
2018-07-04T16:03:20.152Z,25.29
2018-07-04T16:04:46.719Z,25.31
2018-07-04T16:06:14.298Z,25.29
2018-07-04T16:07:42.968Z,25.28
2018-07-04T16:09:09.737Z,25.26
2018-07-04T16:10:38.232Z,25.28
2018-07-04T16:12:05.548Z,25.26
2018-07-04T16:13:32.057Z,25.20
2018-07-04T16:14:59.681Z,25.20
2018-07-04T16:16:27.265Z,25.22
2018-07-04T16:17:54.919Z,25.23
2018-07-04T16:19:22.508Z,25.25
2018-07-04T16:20:49.988Z,25.23
2018-07-04T16:22:17.588Z,25.24
2018-07-04T16:23:46.077Z,25.25
2018-07-04T16:25:12.674Z,25.25
2018-07-04T16:26:39.852Z,25.25
2018-07-04T16:28:08.596Z,25.26
2018-07-04T16:29:35.072Z,25.27
2018-07-04T16:31:02.467Z,25.24
2018-07-04T16:32:30.100Z,25.16
2018-07-04T16:33:57.877Z,25.05
2018-07-04T16:35:26.608Z,24.96
2018-07-04T16:36:53.218Z,24.86
2018-07-04T16:38:21.790Z,24.79
2018-07-04T16:39:48.393Z,24.78
2018-07-04T16:41:16.050Z,24.80
2018-07-04T16:42:43.711Z,24.76
2018-07-04T16:44:12.269Z,24.72
2018-07-04T16:45:38.683Z,24.68
2018-07-04T16:47:06.271Z,24.66
2018-07-04T16:48:33.645Z,24.67
2018-07-04T16:50:02.178Z,24.71
2018-07-04T16:51:28.563Z,24.74
2018-07-04T16:52:56.097Z,24.73
2018-07-04T16:54:24.672Z,24.72
2018-07-04T16:55:52.321Z,24.71
2018-07-04T16:57:18.851Z,24.71
2018-07-04T16:58:46.269Z,24.73
2018-07-04T17:00:14.822Z,24.73
2018-07-04T17:01:41.299Z,24.71
2018-07-04T17:03:08.753Z,24.66
2018-07-04T17:04:36.082Z,24.60
2018-07-04T17:06:03.767Z,24.55
2018-07-04T17:07:31.215Z,24.55
2018-07-04T17:09:00.009Z,24.57
2018-07-04T17:10:26.543Z,24.59
2018-07-04T17:11:54.227Z,24.58
2018-07-04T17:13:21.786Z,24.56
2018-07-04T17:14:49.344Z,24.55
2018-07-04T17:16:16.804Z,24.58
2018-07-04T17:17:44.346Z,24.62
2018-07-04T17:19:11.797Z,24.62
2018-07-04T17:20:39.603Z,24.59
2018-07-04T17:22:07.108Z,24.55
2018-07-04T17:23:34.882Z,24.48
2018-07-04T17:25:02.295Z,24.41
2018-07-04T17:26:30.127Z,24.36
2018-07-04T17:27:57.750Z,24.33
2018-07-04T17:29:25.324Z,24.26
2018-07-04T17:30:53.998Z,24.18
2018-07-04T17:32:21.721Z,24.13
2018-07-04T17:33:48.235Z,24.09
2018-07-04T17:35:15.789Z,24.05
2018-07-04T17:36:44.332Z,24.01
2018-07-04T17:38:10.705Z,23.97
2018-07-04T17:39:38.451Z,23.95
2018-07-04T17:41:05.875Z,23.95
2018-07-04T17:42:34.451Z,23.92
2018-07-04T17:44:01.876Z,23.88
2018-07-04T17:45:28.360Z,23.85
2018-07-04T17:46:56.055Z,23.81
2018-07-04T17:48:23.737Z,23.74
2018-07-04T17:49:52.276Z,23.69
2018-07-04T17:51:18.759Z,23.64
2018-07-04T17:52:46.191Z,23.61
2018-07-04T17:54:13.683Z,23.58
2018-07-04T17:55:41.186Z,23.50
2018-07-04T17:57:08.694Z,23.42
2018-07-04T17:58:37.102Z,23.36
2018-07-04T18:00:04.719Z,23.30
2018-07-04T18:01:31.107Z,23.24
2018-07-04T18:02:58.685Z,23.15
2018-07-04T18:04:27.391Z,23.07
2018-07-04T18:05:53.916Z,23.00
2018-07-04T18:07:21.498Z,22.93
2018-07-04T18:08:49.028Z,22.85
2018-07-04T18:10:17.527Z,22.79
2018-07-04T18:11:44.086Z,22.76
2018-07-04T18:13:11.756Z,22.73
2018-07-04T18:14:40.325Z,22.71
2018-07-04T18:16:06.899Z,22.75
2018-07-04T18:17:34.654Z,22.79
2018-07-04T18:19:03.225Z,22.79
2018-07-04T18:20:29.627Z,22.79
2018-07-04T18:21:58.280Z,22.77
2018-07-04T18:23:24.727Z,22.74
2018-07-04T18:24:52.252Z,22.67
2018-07-04T18:26:20.838Z,22.58
2018-07-04T18:27:48.524Z,22.53
2018-07-04T18:29:15.111Z,22.45
2018-07-04T18:30:42.690Z,22.36
2018-07-04T18:32:10.257Z,22.28
2018-07-04T18:33:37.771Z,22.18
2018-07-04T18:35:05.271Z,22.09
2018-07-04T18:36:33.824Z,22.07
2018-07-04T18:38:00.256Z,22.01
2018-07-04T18:39:27.917Z,21.99
2018-07-04T18:40:56.658Z,21.97
2018-07-04T18:42:24.478Z,21.92
2018-07-04T18:43:50.715Z,21.88
2018-07-04T18:45:18.409Z,21.85
2018-07-04T18:46:47.061Z,21.85
2018-07-04T18:48:13.659Z,21.85
2018-07-04T18:49:41.100Z,21.88
2018-07-04T18:51:08.821Z,21.87
2018-07-04T18:52:36.438Z,21.83
2018-07-04T18:54:03.822Z,21.77
2018-07-04T18:55:31.519Z,21.73
2018-07-04T18:56:59.089Z,21.68
2018-07-04T18:58:26.571Z,21.66
2018-07-04T18:59:55.027Z,21.65
2018-07-04T19:01:21.599Z,21.60
2018-07-04T19:02:49.224Z,21.55
2018-07-04T19:04:16.919Z,21.48
2018-07-04T19:05:44.231Z,21.43
2018-07-04T19:07:12.822Z,21.35
2018-07-04T19:08:39.410Z,21.29
2018-07-04T19:10:06.932Z,21.25
2018-07-04T19:11:34.459Z,21.18
2018-07-04T19:13:02.008Z,21.13
2018-07-04T19:14:29.640Z,21.10
2018-07-04T19:15:57.129Z,21.10
2018-07-04T19:17:25.555Z,21.09
2018-07-04T19:18:53.188Z,21.06
2018-07-04T19:20:19.788Z,21.01
2018-07-04T19:21:48.777Z,20.95
2018-07-04T19:23:16.354Z,20.90
2018-07-04T19:24:42.845Z,20.84
2018-07-04T19:26:10.416Z,20.79